Main page
METAR-TAF:

METAR-TAF

Airports :

Córdoba, Argentina

Ingeniero Aeronáutico Ambrosio L.V. Taravella International Airport

latitude: 31-19S, longitude: 064-13W, elevation: 484 m

Current weather observation

The report was made 1 hour and 5 minutes ago, at 22:00 UTC
Wind 8 kt from the South
Temperature 16°C
Humidity 31%
Pressure 1012 hPa
Visibility 10 km or more
no clouds below 1500 m and no cumulonimbus

METAR: SACO 232200Z 18008KT CAVOK 16/M01 Q1012

Time: 20:05 (23:05 UTC)

Forecast

The report was made 6 hours and 5 minutes ago, at 17:00 UTC
Forecast valid from 23 at 18 UTC to 24 at 18 UTC
Wind 15 kt from the South with gusts up to 25 kt
Visibility: 8000 m
Scattered clouds at a height of 2500 ft
Becoming
between and UTC
Becoming
from 24 at 02 UTC to 24 at 04 UTC
Wind 5 kt from the West
Visibility 10 km or more
no clouds below 1500 m and no cumulonimbus

TAF: SACO 231700Z 2318/2418 18015G25KT 8000 SCT025 TX20/2318Z TN05/2410Z BECMG BECMG 2402/2404 27005KT CAVOK

Weather observations and forecasts of more than 4000 airports (METAR and TAF reports).

The available stations are represented by yellow and red dots on the map.

Hover mouse over dot to see the name of the station.

Then click to see weather observations and forecasts.

To change the map : click on the green buttons with a black cross to zoom in, on the green button with a dash to zoom out, or on the green arrows for adjacent maps.


METAR-TAF: